createdAt,value
2019-01-14T00:00:37.502Z,840.12
2019-01-14T00:01:37.540Z,840.15
2019-01-14T00:02:38.354Z,840.16
2019-01-14T00:03:37.515Z,840.15
2019-01-14T00:04:37.462Z,840.20
2019-01-14T00:05:37.451Z,840.34
2019-01-14T00:06:37.439Z,840.40
2019-01-14T00:07:37.449Z,840.35
2019-01-14T00:08:37.424Z,840.40
2019-01-14T00:09:38.390Z,840.42
2019-01-14T00:10:37.401Z,840.33
2019-01-14T00:11:37.421Z,840.31
2019-01-14T00:12:37.470Z,840.31
2019-01-14T00:13:37.369Z,840.34
2019-01-14T00:14:37.350Z,840.38
2019-01-14T00:15:37.380Z,840.40
2019-01-14T00:16:37.340Z,840.38
2019-01-14T00:17:37.325Z,840.28
2019-01-14T00:18:37.311Z,840.25
2019-01-14T00:19:37.511Z,840.29
2019-01-14T00:20:37.288Z,840.42
2019-01-14T00:21:37.320Z,840.48
2019-01-14T00:22:37.271Z,840.45
2019-01-14T00:23:37.261Z,840.39
2019-01-14T00:24:37.241Z,840.32
2019-01-14T00:25:37.247Z,840.34
2019-01-14T00:26:37.274Z,840.38
2019-01-14T00:27:37.272Z,840.40
2019-01-14T00:28:37.199Z,840.30
2019-01-14T00:29:37.387Z,840.31
2019-01-14T00:30:37.201Z,840.33
2019-01-14T00:31:37.387Z,840.40
2019-01-14T00:32:37.159Z,840.45
2019-01-14T00:33:37.189Z,840.41
2019-01-14T00:34:37.137Z,840.47
2019-01-14T00:35:37.123Z,840.45
2019-01-14T00:36:37.122Z,840.49
2019-01-14T00:37:37.110Z,840.49
2019-01-14T00:38:37.097Z,840.47
2019-01-14T00:39:37.842Z,840.44
2019-01-14T00:40:37.263Z,840.44
2019-01-14T00:41:37.076Z,840.37
2019-01-14T00:42:37.052Z,840.44
2019-01-14T00:43:37.042Z,840.44
2019-01-14T00:44:37.021Z,840.40
2019-01-14T00:45:37.277Z,840.33
2019-01-14T00:46:37.006Z,840.29
2019-01-14T00:47:36.991Z,840.36
2019-01-14T00:48:36.982Z,840.44
2019-01-14T00:49:37.843Z,840.44
2019-01-14T00:50:36.967Z,840.39
2019-01-14T00:51:36.949Z,840.38
2019-01-14T00:52:36.941Z,840.39
2019-01-14T00:53:36.932Z,840.42
2019-01-14T00:54:37.151Z,840.43
2019-01-14T00:55:36.907Z,840.41
2019-01-14T00:56:36.902Z,840.46
2019-01-14T00:57:36.891Z,840.45
2019-01-14T00:58:36.877Z,840.35
2019-01-14T00:59:36.866Z,840.25
2019-01-14T01:00:36.897Z,840.21
2019-01-14T01:01:36.858Z,840.26
2019-01-14T01:02:36.882Z,840.27
2019-01-14T01:03:36.826Z,840.26
2019-01-14T01:04:36.810Z,840.17
2019-01-14T01:05:36.799Z,840.16
2019-01-14T01:06:36.792Z,840.25
2019-01-14T01:07:36.833Z,840.39
2019-01-14T01:08:36.814Z,840.41
2019-01-14T01:09:36.800Z,840.27
2019-01-14T01:10:36.748Z,840.18
2019-01-14T01:11:36.738Z,840.12
2019-01-14T01:12:36.729Z,840.21
2019-01-14T01:13:36.740Z,840.27
2019-01-14T01:14:36.702Z,840.21
2019-01-14T01:15:36.790Z,840.13
2019-01-14T01:16:36.688Z,840.12
2019-01-14T01:17:36.672Z,840.10
2019-01-14T01:18:36.664Z,840.10
2019-01-14T01:19:36.688Z,840.07
2019-01-14T01:20:36.640Z,840.00
2019-01-14T01:21:36.677Z,839.89
2019-01-14T01:22:36.658Z,839.93
2019-01-14T01:23:36.610Z,840.06
2019-01-14T01:24:36.602Z,840.06
2019-01-14T01:25:36.607Z,840.10
2019-01-14T01:26:36.581Z,840.11
2019-01-14T01:27:36.615Z,840.05
2019-01-14T01:28:36.557Z,839.93
2019-01-14T01:29:36.545Z,839.89
2019-01-14T01:30:36.541Z,839.82
2019-01-14T01:31:36.525Z,839.84
2019-01-14T01:32:36.520Z,839.88
2019-01-14T01:33:36.569Z,839.98
2019-01-14T01:34:36.497Z,839.97
2019-01-14T01:35:36.521Z,840.02
2019-01-14T01:36:36.473Z,840.06
2019-01-14T01:37:36.462Z,840.03
2019-01-14T01:38:36.451Z,840.02
2019-01-14T01:39:36.467Z,840.07
2019-01-14T01:40:36.432Z,840.06
2019-01-14T01:41:36.448Z,840.02
2019-01-14T01:42:36.449Z,839.91
2019-01-14T01:43:36.397Z,839.91
2019-01-14T01:44:36.387Z,839.92
2019-01-14T01:45:36.396Z,839.90
2019-01-14T01:46:36.367Z,840.00
2019-01-14T01:47:36.356Z,840.01
2019-01-14T01:48:36.388Z,839.95
2019-01-14T01:49:36.336Z,839.94
2019-01-14T01:50:36.322Z,839.94
2019-01-14T01:51:36.511Z,839.88
2019-01-14T01:52:36.305Z,839.85
2019-01-14T01:53:36.333Z,839.90
2019-01-14T01:54:36.280Z,839.92
2019-01-14T01:55:36.271Z,839.95
2019-01-14T01:56:36.262Z,839.99
2019-01-14T01:57:40.898Z,840.03
2019-01-14T01:58:36.252Z,840.11
2019-01-14T01:59:36.277Z,840.12
2019-01-14T02:00:36.254Z,840.07
2019-01-14T02:01:36.205Z,840.10
2019-01-14T02:02:36.203Z,840.11
2019-01-14T02:03:36.183Z,840.08
2019-01-14T02:04:36.208Z,839.98
2019-01-14T02:05:36.208Z,839.97
2019-01-14T02:06:39.258Z,839.88
2019-01-14T02:07:36.186Z,839.80
2019-01-14T02:08:36.130Z,839.83
2019-01-14T02:09:36.127Z,839.85
2019-01-14T02:10:36.112Z,839.86
2019-01-14T02:11:36.137Z,839.87
2019-01-14T02:12:36.142Z,839.89
2019-01-14T02:13:36.081Z,839.87
2019-01-14T02:14:36.071Z,839.89
2019-01-14T02:15:36.098Z,839.86
2019-01-14T02:16:36.053Z,839.92
2019-01-14T02:17:36.042Z,839.96
2019-01-14T02:18:36.037Z,839.96
2019-01-14T02:19:36.016Z,839.91
2019-01-14T02:20:36.021Z,839.89
2019-01-14T02:21:36.038Z,839.84
2019-01-14T02:22:36.002Z,839.85
2019-01-14T02:23:35.981Z,839.87
2019-01-14T02:24:35.958Z,839.86
2019-01-14T02:25:36.000Z,839.83
2019-01-14T02:26:35.943Z,839.86
2019-01-14T02:27:35.964Z,839.88
2019-01-14T02:28:35.919Z,839.88
2019-01-14T02:29:35.911Z,839.82
2019-01-14T02:30:35.912Z,839.82
2019-01-14T02:31:35.942Z,839.81
2019-01-14T02:32:35.885Z,839.81
2019-01-14T02:33:36.045Z,839.92
2019-01-14T02:34:35.869Z,839.81
2019-01-14T02:35:35.846Z,839.80
2019-01-14T02:36:35.840Z,839.78
2019-01-14T02:37:35.872Z,839.72
2019-01-14T02:38:35.811Z,839.65
2019-01-14T02:39:35.809Z,839.66
2019-01-14T02:40:35.839Z,839.64
2019-01-14T02:41:35.782Z,839.68
2019-01-14T02:42:35.769Z,839.70
2019-01-14T02:43:35.860Z,839.73
2019-01-14T02:44:35.758Z,839.77
2019-01-14T02:45:35.783Z,839.78
2019-01-14T02:46:35.751Z,839.82
2019-01-14T02:47:35.719Z,839.73
2019-01-14T02:48:35.716Z,839.61
2019-01-14T02:49:35.707Z,839.55
2019-01-14T02:50:35.763Z,839.65
2019-01-14T02:51:35.854Z,839.73
2019-01-14T02:52:39.777Z,839.75
2019-01-14T02:53:35.656Z,839.72
2019-01-14T02:54:35.641Z,839.67
2019-01-14T02:55:35.668Z,839.62
2019-01-14T02:56:35.655Z,839.49
2019-01-14T02:57:35.607Z,839.44
2019-01-14T02:58:35.593Z,839.42
2019-01-14T02:59:35.584Z,839.42
2019-01-14T03:00:35.579Z,839.45
2019-01-14T03:01:35.622Z,839.52
2019-01-14T03:02:35.554Z,839.51
2019-01-14T03:03:35.543Z,839.48
2019-01-14T03:04:35.529Z,839.40
2019-01-14T03:05:35.557Z,839.41
2019-01-14T03:06:35.520Z,839.50
2019-01-14T03:07:35.523Z,839.63
2019-01-14T03:08:35.500Z,839.66
2019-01-14T03:09:35.495Z,839.58
2019-01-14T03:10:35.508Z,839.47
2019-01-14T03:11:35.463Z,839.32
2019-01-14T03:12:35.447Z,839.34
2019-01-14T03:13:35.454Z,839.41
2019-01-14T03:14:35.431Z,839.36
2019-01-14T03:15:35.418Z,839.36
2019-01-14T03:16:35.459Z,839.37
2019-01-14T03:17:35.392Z,839.33
2019-01-14T03:18:35.390Z,839.25
2019-01-14T03:19:35.375Z,839.40
2019-01-14T03:20:35.364Z,839.42
2019-01-14T03:21:35.399Z,839.33
2019-01-14T03:22:35.358Z,839.23
2019-01-14T03:23:35.332Z,839.12
2019-01-14T03:24:35.324Z,839.10
2019-01-14T03:25:35.324Z,839.05
2019-01-14T03:26:35.299Z,839.05
2019-01-14T03:27:35.333Z,839.06
2019-01-14T03:28:35.283Z,839.07
2019-01-14T03:29:35.295Z,839.15
2019-01-14T03:30:35.260Z,839.14
2019-01-14T03:31:35.253Z,839.09
2019-01-14T03:32:35.234Z,838.96
2019-01-14T03:33:35.296Z,839.01
2019-01-14T03:34:35.214Z,839.01
2019-01-14T03:35:35.218Z,838.89
2019-01-14T03:36:35.215Z,838.84
2019-01-14T03:37:35.176Z,838.89
2019-01-14T03:38:35.176Z,838.94
2019-01-14T03:39:35.200Z,838.88
2019-01-14T03:40:35.158Z,838.82
2019-01-14T03:41:35.139Z,838.77
2019-01-14T03:42:35.162Z,838.76
2019-01-14T03:43:35.157Z,838.86
2019-01-14T03:44:35.126Z,838.82
2019-01-14T03:45:35.101Z,838.86
2019-01-14T03:46:35.088Z,838.94
2019-01-14T03:47:35.077Z,839.00
2019-01-14T03:48:35.064Z,838.96
2019-01-14T03:49:35.096Z,838.98
2019-01-14T03:50:35.049Z,839.00
2019-01-14T03:51:35.058Z,838.98
2019-01-14T03:52:35.024Z,839.08
2019-01-14T03:53:35.060Z,838.96
2019-01-14T03:54:35.003Z,839.03
2019-01-14T03:55:34.987Z,839.04
2019-01-14T03:56:34.984Z,839.03
2019-01-14T03:57:34.972Z,839.13
2019-01-14T03:58:34.986Z,839.13
2019-01-14T03:59:34.985Z,839.13
2019-01-14T04:00:34.945Z,839.11
2019-01-14T04:01:34.924Z,839.20
2019-01-14T04:02:34.934Z,839.35
2019-01-14T04:03:34.908Z,839.45
2019-01-14T04:04:34.913Z,839.33
2019-01-14T04:05:34.918Z,839.11
2019-01-14T04:06:34.893Z,838.88
2019-01-14T04:07:34.864Z,838.78
2019-01-14T04:08:34.854Z,838.90
2019-01-14T04:09:34.853Z,839.11
2019-01-14T04:10:34.872Z,839.15
2019-01-14T04:11:34.832Z,839.13
2019-01-14T04:12:34.811Z,838.87
2019-01-14T04:13:34.800Z,838.72
2019-01-14T04:14:34.788Z,838.81
2019-01-14T04:15:34.802Z,838.97
2019-01-14T04:16:34.808Z,839.25
2019-01-14T04:17:34.778Z,839.22
2019-01-14T04:18:34.750Z,839.00
2019-01-14T04:19:34.744Z,838.94
2019-01-14T04:20:34.729Z,839.14
2019-01-14T04:21:34.734Z,839.36
2019-01-14T04:22:34.753Z,839.20
2019-01-14T04:23:34.737Z,839.25
2019-01-14T04:24:34.691Z,839.17
2019-01-14T04:25:34.668Z,839.17
2019-01-14T04:26:34.666Z,839.17
2019-01-14T04:27:34.650Z,839.19
2019-01-14T04:28:34.663Z,839.25
2019-01-14T04:29:34.662Z,839.38
2019-01-14T04:30:34.618Z,839.41
2019-01-14T04:31:34.610Z,839.19
2019-01-14T04:32:34.624Z,839.60
2019-01-14T04:33:34.628Z,839.38
2019-01-14T04:34:34.573Z,839.47
2019-01-14T04:35:34.591Z,839.57
2019-01-14T04:36:34.553Z,839.68
2019-01-14T04:37:34.556Z,839.76
2019-01-14T04:38:34.581Z,839.73
2019-01-14T04:39:34.550Z,839.73
2019-01-14T04:40:34.554Z,839.68
2019-01-14T04:41:34.501Z,839.76
2019-01-14T04:42:34.528Z,839.67
2019-01-14T04:43:34.510Z,839.68
2019-01-14T04:44:34.482Z,839.55
2019-01-14T04:45:34.480Z,839.65
2019-01-14T04:46:34.826Z,839.88
2019-01-14T04:47:34.449Z,839.99
2019-01-14T04:48:34.481Z,839.90
2019-01-14T04:49:34.444Z,839.78
2019-01-14T04:50:34.463Z,839.87
2019-01-14T04:51:34.403Z,840.14
2019-01-14T04:52:34.387Z,840.33
2019-01-14T04:53:34.367Z,840.20
2019-01-14T04:54:34.381Z,840.05
2019-01-14T04:55:34.399Z,840.11
2019-01-14T04:56:34.357Z,840.14
2019-01-14T04:57:34.367Z,840.26
2019-01-14T04:58:34.367Z,840.47
2019-01-14T04:59:34.311Z,840.61
2019-01-14T05:00:34.307Z,840.34
2019-01-14T05:01:34.312Z,840.25
2019-01-14T05:02:34.297Z,840.58
2019-01-14T05:03:34.291Z,840.38
2019-01-14T05:04:34.433Z,840.28
2019-01-14T05:05:34.261Z,840.06
2019-01-14T05:06:34.266Z,840.44
2019-01-14T05:07:34.311Z,841.00
2019-01-14T05:08:34.228Z,841.08
2019-01-14T05:09:34.262Z,840.96
2019-01-14T05:10:34.259Z,840.44
2019-01-14T05:11:34.218Z,840.37
2019-01-14T05:12:34.179Z,840.50
2019-01-14T05:13:34.189Z,840.43
2019-01-14T05:14:34.149Z,840.82
2019-01-14T05:15:34.207Z,841.15
2019-01-14T05:16:34.145Z,840.92
2019-01-14T05:17:34.116Z,840.96
2019-01-14T05:18:34.116Z,841.12
2019-01-14T05:19:34.125Z,841.06
2019-01-14T05:20:34.092Z,840.98
2019-01-14T05:21:34.158Z,840.95
2019-01-14T05:22:34.100Z,840.90
2019-01-14T05:23:34.056Z,841.05
2019-01-14T05:24:34.044Z,841.24
2019-01-14T05:25:34.054Z,841.07
2019-01-14T05:26:34.933Z,841.00
2019-01-14T05:27:34.019Z,841.00
2019-01-14T05:28:34.005Z,841.11
2019-01-14T05:29:33.998Z,841.04
2019-01-14T05:30:34.001Z,841.44
2019-01-14T05:31:33.964Z,841.34
2019-01-14T05:32:34.010Z,841.10
2019-01-14T05:33:33.949Z,841.31
2019-01-14T05:34:33.937Z,841.30
2019-01-14T05:35:33.951Z,841.70
2019-01-14T05:36:33.923Z,841.55
2019-01-14T05:37:37.783Z,841.44
2019-01-14T05:38:33.941Z,841.04
2019-01-14T05:39:33.933Z,841.08
2019-01-14T05:40:33.879Z,841.44
2019-01-14T05:41:33.864Z,841.36
2019-01-14T05:42:34.001Z,841.54
2019-01-14T05:43:33.841Z,841.81
2019-01-14T05:44:33.875Z,841.53
2019-01-14T05:45:33.823Z,840.92
2019-01-14T05:46:33.814Z,841.00
2019-01-14T05:47:33.855Z,841.35
2019-01-14T05:48:33.788Z,841.44
2019-01-14T05:49:34.323Z,841.46
2019-01-14T05:50:33.814Z,841.25
2019-01-14T05:51:35.300Z,841.41
2019-01-14T05:52:33.814Z,841.54
2019-01-14T05:53:34.285Z,841.23
2019-01-14T05:54:33.737Z,841.16
2019-01-14T05:55:33.735Z,841.32
2019-01-14T05:56:33.760Z,841.43
2019-01-14T05:57:33.694Z,841.44
2019-01-14T05:58:33.684Z,841.47
2019-01-14T05:59:33.686Z,841.21
2019-01-14T06:00:33.680Z,841.11
2019-01-14T06:01:36.282Z,841.32
2019-01-14T06:02:33.683Z,841.58
2019-01-14T06:03:33.627Z,841.58
2019-01-14T06:04:33.622Z,841.47
2019-01-14T06:05:33.619Z,841.60
2019-01-14T06:06:33.599Z,841.66
2019-01-14T06:07:33.586Z,841.63
2019-01-14T06:08:33.625Z,841.59
2019-01-14T06:09:33.626Z,841.67
2019-01-14T06:10:33.608Z,841.59
2019-01-14T06:11:33.567Z,841.64
2019-01-14T06:12:33.533Z,841.76
2019-01-14T06:13:33.575Z,841.93
2019-01-14T06:14:33.569Z,841.81
2019-01-14T06:15:33.509Z,841.63
2019-01-14T06:16:33.517Z,841.60
2019-01-14T06:17:33.517Z,841.65
2019-01-14T06:18:33.634Z,841.79
2019-01-14T06:19:33.470Z,841.76
2019-01-14T06:20:33.444Z,841.67
2019-01-14T06:21:33.443Z,841.87
2019-01-14T06:22:33.459Z,841.87
2019-01-14T06:23:33.545Z,841.93
2019-01-14T06:24:33.412Z,842.00
2019-01-14T06:25:33.417Z,842.24
2019-01-14T06:26:33.411Z,842.46
2019-01-14T06:27:33.408Z,842.38
2019-01-14T06:28:33.399Z,842.13
2019-01-14T06:29:33.354Z,841.91
2019-01-14T06:30:33.328Z,842.11
2019-01-14T06:31:33.325Z,842.28
2019-01-14T06:32:33.321Z,842.21
2019-01-14T06:33:33.304Z,842.22
2019-01-14T06:34:33.339Z,842.08
2019-01-14T06:35:33.295Z,842.05
2019-01-14T06:36:33.289Z,842.24
2019-01-14T06:37:33.338Z,842.28
2019-01-14T06:38:33.446Z,842.12
2019-01-14T06:39:33.234Z,842.17
2019-01-14T06:40:33.272Z,842.17
2019-01-14T06:41:33.209Z,842.23
2019-01-14T06:42:33.198Z,842.18
2019-01-14T06:43:33.202Z,842.20
2019-01-14T06:44:33.178Z,842.25
2019-01-14T06:45:33.171Z,842.32
2019-01-14T06:46:33.196Z,842.24
2019-01-14T06:47:33.148Z,842.04
2019-01-14T06:48:33.144Z,842.09
2019-01-14T06:49:33.136Z,842.10
2019-01-14T06:50:33.120Z,842.19
2019-01-14T06:51:33.119Z,842.19
2019-01-14T06:52:33.141Z,842.24
2019-01-14T06:53:33.244Z,842.37
2019-01-14T06:54:33.075Z,842.40
2019-01-14T06:55:33.063Z,842.48
2019-01-14T06:56:33.048Z,842.44
2019-01-14T06:57:33.060Z,842.40
2019-01-14T06:58:33.076Z,842.41
2019-01-14T06:59:33.015Z,842.35
2019-01-14T07:00:33.005Z,842.25
2019-01-14T07:01:32.992Z,842.27
2019-01-14T07:02:32.986Z,842.23
2019-01-14T07:03:32.979Z,842.25
2019-01-14T07:04:33.015Z,842.30
2019-01-14T07:05:32.954Z,842.52
2019-01-14T07:06:32.940Z,842.58
2019-01-14T07:07:32.931Z,842.57
2019-01-14T07:08:32.930Z,842.51
2019-01-14T07:09:32.912Z,842.37
2019-01-14T07:10:32.945Z,842.34
2019-01-14T07:11:32.892Z,842.53
2019-01-14T07:12:32.884Z,842.59
2019-01-14T07:13:32.873Z,842.57
2019-01-14T07:14:32.886Z,842.63
2019-01-14T07:15:32.858Z,842.67
2019-01-14T07:16:32.880Z,842.74
2019-01-14T07:17:32.836Z,842.76
2019-01-14T07:18:32.821Z,842.76
2019-01-14T07:19:33.038Z,842.71
2019-01-14T07:20:32.797Z,842.75
2019-01-14T07:21:32.782Z,842.76
2019-01-14T07:22:32.806Z,842.76
2019-01-14T07:23:32.765Z,842.80
2019-01-14T07:24:32.748Z,842.79
2019-01-14T07:25:32.960Z,842.74
2019-01-14T07:26:32.727Z,842.78
2019-01-14T07:27:32.715Z,842.99
2019-01-14T07:28:32.750Z,843.10
2019-01-14T07:29:32.694Z,843.13
2019-01-14T07:30:32.683Z,843.17
2019-01-14T07:31:32.690Z,843.16
2019-01-14T07:32:32.884Z,843.14
2019-01-14T07:33:32.692Z,843.03
2019-01-14T07:34:32.635Z,843.05
2019-01-14T07:35:32.629Z,843.12
2019-01-14T07:36:32.630Z,843.19
2019-01-14T07:37:32.609Z,843.25
2019-01-14T07:38:32.615Z,843.32
2019-01-14T07:39:32.620Z,843.33
2019-01-14T07:40:32.616Z,843.25
2019-01-14T10:23:54.434Z,845.41
2019-01-14T10:24:54.326Z,845.43
2019-01-14T10:25:54.325Z,845.34
2019-01-14T10:26:54.332Z,845.20
2019-01-14T10:27:54.274Z,845.25
2019-01-14T10:28:54.256Z,845.32
2019-01-14T10:29:54.266Z,845.44
2019-01-14T10:30:54.271Z,845.42
2019-01-14T10:31:54.226Z,845.47
2019-01-14T10:32:54.212Z,845.51
2019-01-14T10:33:54.207Z,845.44
2019-01-14T10:34:54.206Z,845.33
2019-01-14T10:35:54.183Z,845.35
2019-01-14T10:36:54.174Z,845.33
2019-01-14T10:37:54.159Z,845.32
2019-01-14T10:38:54.146Z,845.36
2019-01-14T10:39:54.138Z,845.35
2019-01-14T10:40:54.146Z,845.29
2019-01-14T10:41:54.160Z,845.34
2019-01-14T10:42:54.105Z,845.30
2019-01-14T10:43:54.096Z,845.31
2019-01-14T10:44:54.080Z,845.35
2019-01-14T10:45:54.068Z,845.33
2019-01-14T10:46:54.090Z,845.34
2019-01-14T10:47:54.062Z,845.30
2019-01-14T10:48:54.044Z,845.23
2019-01-14T10:49:54.119Z,845.28
2019-01-14T10:50:54.018Z,845.36
2019-01-14T10:51:54.064Z,845.25
2019-01-14T10:52:54.007Z,845.15
2019-01-14T10:53:54.018Z,845.09
2019-01-14T10:54:53.986Z,845.04
2019-01-14T10:55:53.964Z,845.14
2019-01-14T10:56:53.955Z,845.15
2019-01-14T10:57:53.991Z,845.07
2019-01-14T10:58:54.957Z,845.08
2019-01-14T10:59:53.951Z,845.09
2019-01-14T11:00:53.916Z,845.12
2019-01-14T11:01:53.899Z,845.08
2019-01-14T11:02:53.888Z,845.02
2019-01-14T11:03:53.930Z,845.03
2019-01-14T11:04:53.868Z,845.04
2019-01-14T11:05:53.883Z,844.95
2019-01-14T11:06:53.846Z,844.91
2019-01-14T11:07:53.836Z,844.92
2019-01-14T11:08:58.834Z,845.03
2019-01-14T11:09:54.817Z,845.01
2019-01-14T11:10:53.804Z,845.03
2019-01-14T11:11:53.797Z,844.98
2019-01-14T11:12:53.813Z,845.02
2019-01-14T11:13:53.776Z,844.98
2019-01-14T11:14:53.799Z,844.95
2019-01-14T11:15:53.753Z,844.87
2019-01-14T11:16:53.746Z,844.87
2019-01-14T11:17:53.730Z,844.88
2019-01-14T11:18:53.766Z,844.91
2019-01-14T11:19:53.710Z,844.95
2019-01-14T11:20:53.705Z,844.94
2019-01-14T11:21:53.725Z,844.93
2019-01-14T11:22:53.680Z,844.88
2019-01-14T11:23:53.691Z,844.83
2019-01-14T11:24:53.655Z,844.86
2019-01-14T11:25:53.649Z,844.91
2019-01-14T11:26:53.677Z,844.96
2019-01-14T11:27:53.626Z,844.95
2019-01-14T11:28:53.617Z,844.94
2019-01-14T11:29:53.621Z,844.95
2019-01-14T11:30:53.595Z,844.95
2019-01-14T11:31:53.581Z,845.04
2019-01-14T11:32:53.607Z,844.98
2019-01-14T11:33:53.562Z,844.81
2019-01-14T11:34:53.549Z,844.80
2019-01-14T11:35:53.570Z,844.83
2019-01-14T11:36:53.533Z,844.81
2019-01-14T11:37:53.534Z,844.80
2019-01-14T11:38:53.512Z,844.93
2019-01-14T11:39:53.492Z,845.00
2019-01-14T11:40:53.485Z,845.01
2019-01-14T11:41:53.513Z,845.05
2019-01-14T11:42:53.466Z,845.01
2019-01-14T11:43:53.470Z,844.97
2019-01-14T11:44:53.447Z,844.98
2019-01-14T11:45:53.430Z,844.98
2019-01-14T11:46:53.457Z,845.04
2019-01-14T11:47:53.410Z,845.00
2019-01-14T11:48:53.403Z,845.05
2019-01-14T11:49:53.406Z,845.10
2019-01-14T11:50:53.382Z,845.03
2019-01-14T11:51:53.369Z,845.04
2019-01-14T11:52:53.389Z,845.02
2019-01-14T11:53:53.344Z,845.00
2019-01-14T11:54:53.333Z,845.03
2019-01-14T11:55:53.322Z,845.06
2019-01-14T11:56:53.341Z,845.07
2019-01-14T11:57:53.339Z,845.14
2019-01-14T11:58:53.293Z,845.13
2019-01-14T11:59:53.284Z,845.12
2019-01-14T12:00:53.276Z,845.11
2019-01-14T12:01:53.262Z,845.06
2019-01-14T12:02:53.283Z,845.05
2019-01-14T12:03:53.238Z,844.97
2019-01-14T12:04:53.227Z,845.00
2019-01-14T12:05:53.222Z,845.04
2019-01-14T12:06:53.210Z,844.97
2019-01-14T12:07:53.241Z,845.01
2019-01-14T12:08:53.208Z,844.95
2019-01-14T12:09:53.176Z,845.00
2019-01-14T12:10:53.165Z,845.02
2019-01-14T12:11:53.155Z,844.96
2019-01-14T12:12:53.202Z,844.95
2019-01-14T12:13:53.134Z,844.93
2019-01-14T12:14:53.124Z,844.86
2019-01-14T12:15:53.141Z,844.86
2019-01-14T12:16:53.102Z,844.86
2019-01-14T12:17:53.089Z,844.88
2019-01-14T12:18:53.116Z,844.93
2019-01-14T12:19:54.090Z,844.93
2019-01-14T12:20:53.103Z,844.91
2019-01-14T12:21:53.072Z,844.95
2019-01-14T12:22:53.038Z,844.92
2019-01-14T12:23:53.026Z,844.89
2019-01-14T12:24:53.021Z,844.91
2019-01-14T12:25:53.004Z,844.94
2019-01-14T12:26:54.177Z,844.98
2019-01-14T12:27:53.000Z,845.01
2019-01-14T12:28:52.975Z,845.03
2019-01-14T12:29:52.964Z,844.98
2019-01-14T12:30:52.966Z,844.89
2019-01-14T12:31:52.977Z,844.71
2019-01-14T12:32:52.928Z,844.65
2019-01-14T12:33:52.927Z,844.76
2019-01-14T12:34:52.912Z,844.85
2019-01-14T12:35:52.921Z,844.77
2019-01-14T12:36:52.893Z,844.77
2019-01-14T12:37:52.879Z,844.73
2019-01-14T12:38:52.867Z,844.56
2019-01-14T12:39:52.856Z,844.43
2019-01-14T12:40:52.843Z,844.45
2019-01-14T12:41:52.855Z,844.46
2019-01-14T12:42:52.835Z,844.58
2019-01-14T12:43:52.817Z,844.62
2019-01-14T12:44:52.803Z,844.65
2019-01-14T12:45:52.793Z,844.68
2019-01-14T12:46:52.782Z,844.75
2019-01-14T12:47:52.800Z,844.77
2019-01-14T12:48:52.770Z,844.74
2019-01-14T12:49:52.788Z,844.69
2019-01-14T12:50:52.738Z,844.70
2019-01-14T12:51:52.727Z,844.57
2019-01-14T12:52:52.721Z,844.60
2019-01-14T12:53:52.766Z,844.73
2019-01-14T12:54:52.695Z,844.87
2019-01-14T12:55:52.684Z,844.77
2019-01-14T12:56:52.676Z,844.82
2019-01-14T12:57:52.662Z,844.90
2019-01-14T12:58:52.684Z,844.85
2019-01-14T12:59:52.689Z,844.80
2019-01-14T13:00:52.633Z,844.83
2019-01-14T13:01:52.650Z,844.84
2019-01-14T13:02:52.614Z,844.89
2019-01-14T13:03:52.602Z,844.86
2019-01-14T13:04:52.612Z,844.89
2019-01-14T13:05:52.612Z,844.81
2019-01-14T13:06:52.569Z,844.76
2019-01-14T13:07:52.563Z,844.84
2019-01-14T13:08:52.581Z,844.96
2019-01-14T13:09:52.565Z,844.95
2019-01-14T13:10:52.527Z,844.89
2019-01-14T13:11:52.512Z,844.88
2019-01-14T13:12:52.506Z,844.85
2019-01-14T13:13:52.536Z,844.85
2019-01-14T13:14:52.481Z,844.85
2019-01-14T13:15:52.497Z,844.87
2019-01-14T13:16:52.468Z,844.74
2019-01-14T13:17:52.501Z,844.65
2019-01-14T13:18:52.441Z,844.66
2019-01-14T13:19:52.476Z,844.67
2019-01-14T13:20:52.420Z,844.75
2019-01-14T13:21:52.430Z,844.83
2019-01-14T13:22:52.398Z,844.79
2019-01-14T13:23:52.394Z,844.73
2019-01-14T13:24:52.412Z,844.66
2019-01-14T13:25:52.368Z,844.68
2019-01-14T13:26:52.356Z,844.68
2019-01-14T13:27:52.364Z,844.77
2019-01-14T13:28:52.332Z,844.75
2019-01-14T13:29:52.320Z,844.68
2019-01-14T13:30:52.351Z,844.78
2019-01-14T13:31:52.298Z,844.78
2019-01-14T13:32:52.294Z,844.73
2019-01-14T13:33:52.307Z,844.64
2019-01-14T13:34:52.267Z,844.71
2019-01-14T13:35:52.257Z,844.77
2019-01-14T13:36:52.280Z,844.77
2019-01-14T13:37:52.235Z,844.77
2019-01-14T13:38:52.224Z,844.74
2019-01-14T13:39:52.692Z,844.71
2019-01-14T13:40:52.210Z,844.65
2019-01-14T13:41:52.227Z,844.64
2019-01-14T13:42:52.180Z,844.65
2019-01-14T13:43:52.171Z,844.72
2019-01-14T13:44:52.162Z,844.84
2019-01-14T13:45:52.515Z,844.90
2019-01-14T13:46:52.173Z,844.81
2019-01-14T13:47:52.133Z,844.84
2019-01-14T13:48:52.160Z,844.75
2019-01-14T13:49:52.117Z,844.72
2019-01-14T13:50:52.097Z,844.78
2019-01-14T13:51:52.112Z,844.85
2019-01-14T13:52:52.075Z,844.84
2019-01-14T13:53:52.063Z,844.81
2019-01-14T13:54:52.091Z,844.85
2019-01-14T13:55:59.284Z,844.83
2019-01-14T13:56:53.031Z,844.85
2019-01-14T13:57:52.436Z,844.87
2019-01-14T13:58:52.008Z,844.83
2019-01-14T13:59:52.001Z,844.78
2019-01-14T14:00:52.062Z,844.74
2019-01-14T14:01:51.976Z,844.74
2019-01-14T14:02:51.970Z,844.85
2019-01-14T14:03:51.976Z,844.85
2019-01-14T14:04:51.982Z,844.88
2019-01-14T14:05:51.931Z,844.88
2019-01-14T14:06:51.926Z,844.86
2019-01-14T14:07:51.911Z,844.87
2019-01-14T14:08:51.900Z,844.86
2019-01-14T14:09:51.907Z,844.88
2019-01-14T14:10:51.915Z,844.83
2019-01-14T14:11:51.879Z,844.94
2019-01-14T14:12:51.856Z,844.97
2019-01-14T14:13:51.844Z,844.98
2019-01-14T14:14:51.834Z,845.09
2019-01-14T14:15:51.846Z,845.20
2019-01-14T14:16:51.855Z,845.18
2019-01-14T14:17:51.805Z,845.11
2019-01-14T14:18:51.797Z,845.09
2019-01-14T14:19:51.785Z,845.10
2019-01-14T14:20:51.812Z,845.10
2019-01-14T14:21:51.774Z,845.09
2019-01-14T14:22:51.753Z,844.96
2019-01-14T14:23:51.742Z,845.04
2019-01-14T14:24:51.726Z,844.98
2019-01-14T14:25:51.715Z,844.98
2019-01-14T14:26:51.753Z,844.95
2019-01-14T14:27:51.715Z,844.91
2019-01-14T14:28:51.694Z,844.85
2019-01-14T14:29:51.669Z,844.91
2019-01-14T14:30:51.663Z,844.90
2019-01-14T14:31:51.653Z,844.91
2019-01-14T14:32:51.685Z,845.02
2019-01-14T14:33:51.629Z,845.13
2019-01-14T14:34:51.643Z,845.14
2019-01-14T14:35:51.608Z,845.13
2019-01-14T14:36:51.592Z,845.09
2019-01-14T14:37:51.584Z,845.05
2019-01-14T14:38:51.630Z,844.99
2019-01-14T14:39:51.560Z,844.97
2019-01-14T14:40:51.548Z,845.15
2019-01-14T14:41:51.544Z,845.15
2019-01-14T14:42:51.544Z,845.00
2019-01-14T14:43:51.518Z,844.87
2019-01-14T14:44:51.547Z,844.74
2019-01-14T14:45:51.496Z,844.72
2019-01-14T14:46:51.484Z,844.71
2019-01-14T14:47:51.504Z,844.76
2019-01-14T14:48:51.498Z,844.91
2019-01-14T14:49:51.450Z,844.91
2019-01-14T14:50:51.440Z,844.91
2019-01-14T14:51:51.430Z,844.74
2019-01-14T14:52:51.421Z,844.62
2019-01-14T14:53:51.430Z,844.69
2019-01-14T14:54:51.430Z,844.74
2019-01-14T14:55:51.385Z,844.87
2019-01-14T14:56:51.374Z,844.95
2019-01-14T14:57:51.402Z,844.96
2019-01-14T14:58:51.355Z,844.94
2019-01-14T14:59:51.376Z,844.91
2019-01-14T15:00:51.330Z,844.89
2019-01-14T15:01:51.322Z,844.78
2019-01-14T15:02:51.345Z,844.87
2019-01-14T15:03:51.300Z,845.03
2019-01-14T15:04:51.293Z,845.19
2019-01-14T15:05:51.280Z,845.25
2019-01-14T15:06:51.298Z,845.41
2019-01-14T15:07:51.257Z,845.14
2019-01-14T15:08:51.299Z,845.10
2019-01-14T15:09:55.797Z,845.01
2019-01-14T15:10:51.228Z,845.05